TimeCST,TemperatureF,Dew PointF,Humidity,Sea Level PressureIn,VisibilityMPH,Wind Direction,Wind SpeedMPH,Gust SpeedMPH,PrecipitationIn,Events,Conditions,WindDirDegrees,DateUTC
12:51 AM,25.0,14.0,63,30.21,10.0,SSW,3.5,-,N/A,,Clear,210,2013-02-17 06:51:00
1:51 AM,24.1,12.9,62,30.20,10.0,NE,3.5,-,N/A,,Clear,50,2013-02-17 07:51:00
2:51 AM,24.1,15.1,69,30.20,10.0,Calm,Calm,-,N/A,,Mostly Cloudy,0,2013-02-17 08:51:00
3:51 AM,25.0,16.0,69,30.20,10.0,Calm,Calm,-,N/A,,Mostly Cloudy,0,2013-02-17 09:51:00
4:51 AM,25.0,12.9,60,30.20,10.0,East,4.6,-,N/A,,Mostly Cloudy,100,2013-02-17 10:51:00
5:51 AM,23.0,14.0,68,30.22,10.0,East,4.6,-,N/A,,Mostly Cloudy,90,2013-02-17 11:51:00
6:51 AM,25.0,18.0,75,30.22,10.0,East,4.6,-,N/A,,Mostly Cloudy,100,2013-02-17 12:51:00
7:51 AM,27.0,17.1,66,30.22,10.0,ESE,10.4,-,N/A,,Mostly Cloudy,110,2013-02-17 13:51:00
8:51 AM,30.0,16.0,56,30.22,10.0,ESE,12.7,-,N/A,,Mostly Cloudy,120,2013-02-17 14:51:00
9:51 AM,34.0,15.1,46,30.22,10.0,ESE,12.7,-,N/A,,Mostly Cloudy,120,2013-02-17 15:51:00
10:51 AM,37.9,15.1,39,30.20,10.0,SE,12.7,-,N/A,,Mostly Cloudy,140,2013-02-17 16:51:00
11:51 AM,41.0,16.0,36,30.17,10.0,ESE,13.8,-,N/A,,Mostly Cloudy,120,2013-02-17 17:51:00
12:51 PM,44.1,17.1,34,30.13,10.0,SE,16.1,24.2,N/A,,Scattered Clouds,130,2013-02-17 18:51:00
1:51 PM,45.0,18.0,34,30.10,10.0,SE,15.0,21.9,N/A,,Mostly Cloudy,130,2013-02-17 19:51:00
2:51 PM,46.9,19.0,33,30.07,10.0,SE,17.3,23.0,N/A,,Scattered Clouds,140,2013-02-17 20:51:00
3:51 PM,48.0,19.9,33,30.05,10.0,SE,17.3,24.2,N/A,,Partly Cloudy,130,2013-02-17 21:51:00
4:51 PM,46.9,21.9,37,30.02,10.0,SE,15.0,24.2,N/A,,Scattered Clouds,130,2013-02-17 22:51:00
5:51 PM,46.0,23.0,40,30.01,10.0,SE,12.7,-,N/A,,Mostly Cloudy,140,2013-02-17 23:51:00
6:51 PM,44.1,28.0,53,30.02,10.0,SE,15.0,25.3,N/A,,Mostly Cloudy,140,2013-02-18 00:51:00
7:51 PM,44.1,28.9,55,30.01,10.0,SSE,16.1,-,N/A,,Mostly Cloudy,150,2013-02-18 01:51:00
8:51 PM,43.0,30.0,60,30.00,10.0,SSE,15.0,23.0,N/A,,Mostly Cloudy,150,2013-02-18 02:51:00
9:51 PM,42.1,30.0,62,29.98,10.0,SE,13.8,-,N/A,,Mostly Cloudy,130,2013-02-18 03:51:00
11:51 PM,41.0,28.9,62,29.94,10.0,SE,10.4,-,N/A,,Mostly Cloudy,130,2013-02-18 05:51:00